sensor_id;sensor_type;location;lat;lon;timestamp;temperature;humidity
59881;DHT22;45751;51.380;10.326;2023-08-07T00:02:21;13.10;99.90
59881;DHT22;45751;51.380;10.326;2023-08-07T00:04:48;13.10;99.90
59881;DHT22;45751;51.380;10.326;2023-08-07T00:07:15;13.10;99.90
59881;DHT22;45751;51.380;10.326;2023-08-07T00:09:42;13.10;99.90
59881;DHT22;45751;51.380;10.326;2023-08-07T00:12:09;13.10;99.90
59881;DHT22;45751;51.380;10.326;2023-08-07T00:14:36;13.00;99.90
59881;DHT22;45751;51.380;10.326;2023-08-07T00:17:03;13.00;99.90
59881;DHT22;45751;51.380;10.326;2023-08-07T00:19:31;13.00;99.90
59881;DHT22;45751;51.380;10.326;2023-08-07T00:21:57;13.00;99.90
59881;DHT22;45751;51.380;10.326;2023-08-07T00:24:24;13.00;99.90
59881;DHT22;45751;51.380;10.326;2023-08-07T00:26:51;13.00;99.90
59881;DHT22;45751;51.380;10.326;2023-08-07T00:29:19;13.00;99.90
59881;DHT22;45751;51.380;10.326;2023-08-07T00:31:45;13.00;99.90
59881;DHT22;45751;51.380;10.326;2023-08-07T00:34:13;13.00;99.90
59881;DHT22;45751;51.380;10.326;2023-08-07T00:36:40;13.00;99.90
59881;DHT22;45751;51.380;10.326;2023-08-07T00:39:07;12.90;99.90
59881;DHT22;45751;51.380;10.326;2023-08-07T00:41:38;12.90;99.90
59881;DHT22;45751;51.380;10.326;2023-08-07T00:44:05;12.80;99.90
59881;DHT22;45751;51.380;10.326;2023-08-07T00:46:34;12.90;99.90
59881;DHT22;45751;51.380;10.326;2023-08-07T00:49:02;12.90;99.90
59881;DHT22;45751;51.380;10.326;2023-08-07T00:51:29;12.90;99.90
59881;DHT22;45751;51.380;10.326;2023-08-07T00:53:57;12.90;99.90
59881;DHT22;45751;51.380;10.326;2023-08-07T00:56:25;12.90;99.90
59881;DHT22;45751;51.380;10.326;2023-08-07T00:58:53;12.80;99.90
59881;DHT22;45751;51.380;10.326;2023-08-07T01:01:20;12.80;99.90
59881;DHT22;45751;51.380;10.326;2023-08-07T01:03:47;12.80;99.90
59881;DHT22;45751;51.380;10.326;2023-08-07T01:06:14;12.80;99.90
59881;DHT22;45751;51.380;10.326;2023-08-07T01:08:41;12.70;99.90
59881;DHT22;45751;51.380;10.326;2023-08-07T01:11:33;12.70;99.90
59881;DHT22;45751;51.380;10.326;2023-08-07T01:14:31;12.70;99.90
59881;DHT22;45751;51.380;10.326;2023-08-07T01:19:31;12.60;99.90
59881;DHT22;45751;51.380;10.326;2023-08-07T01:22:09;12.60;99.90
59881;DHT22;45751;51.380;10.326;2023-08-07T01:24:40;12.60;99.90
59881;DHT22;45751;51.380;10.326;2023-08-07T01:32:54;12.60;99.90
59881;DHT22;45751;51.380;10.326;2023-08-07T01:35:24;12.50;99.90
59881;DHT22;45751;51.380;10.326;2023-08-07T01:37:55;12.50;99.90
59881;DHT22;45751;51.380;10.326;2023-08-07T01:40:24;12.50;99.90
59881;DHT22;45751;51.380;10.326;2023-08-07T01:42:52;12.50;99.90
59881;DHT22;45751;51.380;10.326;2023-08-07T01:45:27;12.50;99.90
59881;DHT22;45751;51.380;10.326;2023-08-07T01:47:55;12.50;99.90
59881;DHT22;45751;51.380;10.326;2023-08-07T01:50:23;12.40;99.90
59881;DHT22;45751;51.380;10.326;2023-08-07T01:52:52;12.40;99.90
59881;DHT22;45751;51.380;10.326;2023-08-07T01:55:20;12.50;99.90
59881;DHT22;45751;51.380;10.326;2023-08-07T01:57:51;12.40;99.90
59881;DHT22;45751;51.380;10.326;2023-08-07T02:00:18;12.40;99.90
59881;DHT22;45751;51.380;10.326;2023-08-07T02:02:45;12.40;99.90
59881;DHT22;45751;51.380;10.326;2023-08-07T02:05:14;12.40;99.90
59881;DHT22;45751;51.380;10.326;2023-08-07T02:07:42;12.40;99.90
59881;DHT22;45751;51.380;10.326;2023-08-07T02:10:09;12.40;99.90
59881;DHT22;45751;51.380;10.326;2023-08-07T02:12:36;12.40;99.90
59881;DHT22;45751;51.380;10.326;2023-08-07T02:15:03;12.40;99.90
59881;DHT22;45751;51.380;10.326;2023-08-07T02:17:30;12.30;99.90
59881;DHT22;45751;51.380;10.326;2023-08-07T02:19:57;12.30;99.90
59881;DHT22;45751;51.380;10.326;2023-08-07T02:22:25;12.30;99.90
59881;DHT22;45751;51.380;10.326;2023-08-07T02:24:52;12.30;99.90
59881;DHT22;45751;51.380;10.326;2023-08-07T02:27:19;12.30;99.90
59881;DHT22;45751;51.380;10.326;2023-08-07T02:29:46;12.30;99.90
59881;DHT22;45751;51.380;10.326;2023-08-07T02:32:13;12.30;99.90
59881;DHT22;45751;51.380;10.326;2023-08-07T02:34:40;12.30;99.90
59881;DHT22;45751;51.380;10.326;2023-08-07T02:37:07;12.30;99.90
59881;DHT22;45751;51.380;10.326;2023-08-07T02:39:35;12.30;99.90
59881;DHT22;45751;51.380;10.326;2023-08-07T02:42:02;12.30;99.90
59881;DHT22;45751;51.380;10.326;2023-08-07T02:44:29;12.10;99.90
59881;DHT22;45751;51.380;10.326;2023-08-07T02:46:56;12.30;99.90
59881;DHT22;45751;51.380;10.326;2023-08-07T02:49:24;12.20;99.90
59881;DHT22;45751;51.380;10.326;2023-08-07T02:51:52;12.30;99.90
59881;DHT22;45751;51.380;10.326;2023-08-07T02:54:19;12.20;99.90
59881;DHT22;45751;51.380;10.326;2023-08-07T02:56:45;12.20;99.90
59881;DHT22;45751;51.380;10.326;2023-08-07T02:59:12;12.20;99.90
59881;DHT22;45751;51.380;10.326;2023-08-07T03:01:39;12.20;99.90
59881;DHT22;45751;51.380;10.326;2023-08-07T03:04:06;12.20;99.90
59881;DHT22;45751;51.380;10.326;2023-08-07T03:06:33;12.20;99.90
59881;DHT22;45751;51.380;10.326;2023-08-07T03:09:00;12.20;99.90
59881;DHT22;45751;51.380;10.326;2023-08-07T03:11:27;12.30;99.90
59881;DHT22;45751;51.380;10.326;2023-08-07T03:13:54;12.20;99.90
59881;DHT22;45751;51.380;10.326;2023-08-07T03:16:21;12.20;99.90
59881;DHT22;45751;51.380;10.326;2023-08-07T03:18:48;12.20;99.90
59881;DHT22;45751;51.380;10.326;2023-08-07T03:21:15;12.20;99.90
59881;DHT22;45751;51.380;10.326;2023-08-07T03:23:42;12.20;99.90
59881;DHT22;45751;51.380;10.326;2023-08-07T03:26:11;12.20;99.90
59881;DHT22;45751;51.380;10.326;2023-08-07T03:28:45;12.20;99.90
59881;DHT22;45751;51.380;10.326;2023-08-07T03:31:16;12.20;99.90
59881;DHT22;45751;51.380;10.326;2023-08-07T03:33:45;12.20;99.90
59881;DHT22;45751;51.380;10.326;2023-08-07T03:36:13;12.20;99.90
59881;DHT22;45751;51.380;10.326;2023-08-07T03:38:40;12.20;99.90
59881;DHT22;45751;51.380;10.326;2023-08-07T03:41:08;12.20;99.90
59881;DHT22;45751;51.380;10.326;2023-08-07T03:43:37;12.20;99.90
59881;DHT22;45751;51.380;10.326;2023-08-07T03:46:04;12.20;99.90
59881;DHT22;45751;51.380;10.326;2023-08-07T03:48:30;12.20;99.90
59881;DHT22;45751;51.380;10.326;2023-08-07T03:51:04;12.20;99.90
59881;DHT22;45751;51.380;10.326;2023-08-07T03:53:37;12.20;99.90
59881;DHT22;45751;51.380;10.326;2023-08-07T03:56:04;12.20;99.90
59881;DHT22;45751;51.380;10.326;2023-08-07T03:58:32;12.20;99.90
59881;DHT22;45751;51.380;10.326;2023-08-07T04:01:00;12.20;99.90
59881;DHT22;45751;51.380;10.326;2023-08-07T04:03:27;12.20;99.90
59881;DHT22;45751;51.380;10.326;2023-08-07T04:05:54;12.30;99.90
59881;DHT22;45751;51.380;10.326;2023-08-07T04:08:22;12.20;99.90
59881;DHT22;45751;51.380;10.326;2023-08-07T04:11:05;12.20;99.90
59881;DHT22;45751;51.380;10.326;2023-08-07T04:13:34;12.20;99.90
59881;DHT22;45751;51.380;10.326;2023-08-07T04:16:02;12.20;99.90
59881;DHT22;45751;51.380;10.326;2023-08-07T04:18:32;12.30;99.90
59881;DHT22;45751;51.380;10.326;2023-08-07T04:21:01;12.30;99.90
59881;DHT22;45751;51.380;10.326;2023-08-07T04:23:28;12.20;99.90
59881;DHT22;45751;51.380;10.326;2023-08-07T04:25:55;12.20;99.90
59881;DHT22;45751;51.380;10.326;2023-08-07T04:28:23;12.20;99.90
59881;DHT22;45751;51.380;10.326;2023-08-07T04:30:51;12.20;99.90
59881;DHT22;45751;51.380;10.326;2023-08-07T04:33:19;12.20;99.90
59881;DHT22;45751;51.380;10.326;2023-08-07T04:35:46;12.30;99.90
59881;DHT22;45751;51.380;10.326;2023-08-07T04:38:17;12.20;99.90
59881;DHT22;45751;51.380;10.326;2023-08-07T04:40:48;12.20;99.90
59881;DHT22;45751;51.380;10.326;2023-08-07T04:43:16;12.30;99.90
59881;DHT22;45751;51.380;10.326;2023-08-07T04:45:43;12.30;99.90
59881;DHT22;45751;51.380;10.326;2023-08-07T04:48:12;12.30;99.90
59881;DHT22;45751;51.380;10.326;2023-08-07T04:50:39;12.30;99.90
59881;DHT22;45751;51.380;10.326;2023-08-07T04:53:06;12.30;99.90
59881;DHT22;45751;51.380;10.326;2023-08-07T04:55:33;12.30;99.90
59881;DHT22;45751;51.380;10.326;2023-08-07T04:58:00;12.30;99.90
59881;DHT22;45751;51.380;10.326;2023-08-07T05:00:27;12.30;99.90
59881;DHT22;45751;51.380;10.326;2023-08-07T05:02:55;12.30;99.90
59881;DHT22;45751;51.380;10.326;2023-08-07T05:05:22;12.30;99.90
59881;DHT22;45751;51.380;10.326;2023-08-07T05:07:50;12.30;99.90
59881;DHT22;45751;51.380;10.326;2023-08-07T05:10:17;12.40;99.90
59881;DHT22;45751;51.380;10.326;2023-08-07T05:12:44;12.30;99.90
59881;DHT22;45751;51.380;10.326;2023-08-07T05:15:11;12.30;99.90
59881;DHT22;45751;51.380;10.326;2023-08-07T05:17:38;12.40;99.90
59881;DHT22;45751;51.380;10.326;2023-08-07T05:20:07;12.30;99.90
59881;DHT22;45751;51.380;10.326;2023-08-07T05:22:35;12.30;99.90
59881;DHT22;45751;51.380;10.326;2023-08-07T05:25:03;12.40;99.90
59881;DHT22;45751;51.380;10.326;2023-08-07T05:27:30;12.40;99.90
59881;DHT22;45751;51.380;10.326;2023-08-07T05:29:56;12.40;99.90
59881;DHT22;45751;51.380;10.326;2023-08-07T05:32:23;12.40;99.90
59881;DHT22;45751;51.380;10.326;2023-08-07T05:34:50;12.40;99.90
59881;DHT22;45751;51.380;10.326;2023-08-07T05:37:17;12.40;99.90
59881;DHT22;45751;51.380;10.326;2023-08-07T05:39:44;12.40;99.90
59881;DHT22;45751;51.380;10.326;2023-08-07T05:42:12;12.40;99.90
59881;DHT22;45751;51.380;10.326;2023-08-07T05:44:39;12.50;99.90
59881;DHT22;45751;51.380;10.326;2023-08-07T05:47:06;12.40;99.90
59881;DHT22;45751;51.380;10.326;2023-08-07T05:49:33;12.40;99.90
59881;DHT22;45751;51.380;10.326;2023-08-07T05:52:00;12.50;99.90
59881;DHT22;45751;51.380;10.326;2023-08-07T05:54:27;12.50;99.90
59881;DHT22;45751;51.380;10.326;2023-08-07T05:56:54;12.50;99.90
59881;DHT22;45751;51.380;10.326;2023-08-07T05:59:21;12.50;99.90
59881;DHT22;45751;51.380;10.326;2023-08-07T06:01:47;12.50;99.90
59881;DHT22;45751;51.380;10.326;2023-08-07T06:04:14;12.50;99.90
59881;DHT22;45751;51.380;10.326;2023-08-07T06:06:41;12.40;99.90
59881;DHT22;45751;51.380;10.326;2023-08-07T06:09:09;12.50;99.90
59881;DHT22;45751;51.380;10.326;2023-08-07T06:11:36;12.50;99.90
59881;DHT22;45751;51.380;10.326;2023-08-07T06:14:03;12.50;99.90
59881;DHT22;45751;51.380;10.326;2023-08-07T06:16:30;12.50;99.90
59881;DHT22;45751;51.380;10.326;2023-08-07T06:18:57;12.50;99.90
59881;DHT22;45751;51.380;10.326;2023-08-07T06:21:24;12.60;99.90
59881;DHT22;45751;51.380;10.326;2023-08-07T06:23:51;12.60;99.90
59881;DHT22;45751;51.380;10.326;2023-08-07T06:26:18;12.50;99.90
59881;DHT22;45751;51.380;10.326;2023-08-07T06:28:45;12.60;99.90
59881;DHT22;45751;51.380;10.326;2023-08-07T06:31:12;12.60;99.90
59881;DHT22;45751;51.380;10.326;2023-08-07T06:33:39;12.70;99.90
59881;DHT22;45751;51.380;10.326;2023-08-07T06:36:07;12.70;99.90
59881;DHT22;45751;51.380;10.326;2023-08-07T06:38:35;12.70;99.90
59881;DHT22;45751;51.380;10.326;2023-08-07T06:41:03;12.70;99.90
59881;DHT22;45751;51.380;10.326;2023-08-07T06:43:30;12.80;99.90
59881;DHT22;45751;51.380;10.326;2023-08-07T06:45:58;12.80;99.90
59881;DHT22;45751;51.380;10.326;2023-08-07T06:48:25;12.80;99.90
59881;DHT22;45751;51.380;10.326;2023-08-07T06:50:52;12.80;99.90
59881;DHT22;45751;51.380;10.326;2023-08-07T06:53:19;12.80;99.90
59881;DHT22;45751;51.380;10.326;2023-08-07T06:55:47;12.80;99.90
59881;DHT22;45751;51.380;10.326;2023-08-07T06:58:13;12.80;99.90
59881;DHT22;45751;51.380;10.326;2023-08-07T07:00:40;12.90;99.90
59881;DHT22;45751;51.380;10.326;2023-08-07T07:03:07;12.80;99.90
59881;DHT22;45751;51.380;10.326;2023-08-07T07:05:36;12.90;99.90
59881;DHT22;45751;51.380;10.326;2023-08-07T07:08:04;12.80;99.90
59881;DHT22;45751;51.380;10.326;2023-08-07T07:10:31;12.90;99.90
59881;DHT22;45751;51.380;10.326;2023-08-07T07:12:58;12.90;99.90
59881;DHT22;45751;51.380;10.326;2023-08-07T07:15:25;12.80;99.90
59881;DHT22;45751;51.380;10.326;2023-08-07T07:17:52;12.80;99.90
59881;DHT22;45751;51.380;10.326;2023-08-07T07:20:19;12.90;99.90
59881;DHT22;45751;51.380;10.326;2023-08-07T07:22:47;12.90;99.90
59881;DHT22;45751;51.380;10.326;2023-08-07T07:25:14;12.90;99.90
59881;DHT22;45751;51.380;10.326;2023-08-07T07:27:41;12.90;99.90
59881;DHT22;45751;51.380;10.326;2023-08-07T07:30:08;12.80;99.90
59881;DHT22;45751;51.380;10.326;2023-08-07T07:32:35;12.80;99.90
59881;DHT22;45751;51.380;10.326;2023-08-07T07:35:03;12.80;99.90
59881;DHT22;45751;51.380;10.326;2023-08-07T07:37:33;12.80;99.90
59881;DHT22;45751;51.380;10.326;2023-08-07T07:40:00;12.70;99.90
59881;DHT22;45751;51.380;10.326;2023-08-07T07:42:27;12.70;99.90
59881;DHT22;45751;51.380;10.326;2023-08-07T07:44:54;12.70;99.90
59881;DHT22;45751;51.380;10.326;2023-08-07T07:47:21;12.70;99.90
59881;DHT22;45751;51.380;10.326;2023-08-07T07:49:48;12.70;99.90
59881;DHT22;45751;51.380;10.326;2023-08-07T07:52:15;12.70;99.90
59881;DHT22;45751;51.380;10.326;2023-08-07T07:54:42;12.70;99.90
59881;DHT22;45751;51.380;10.326;2023-08-07T07:57:09;12.70;99.90
59881;DHT22;45751;51.380;10.326;2023-08-07T07:59:36;12.60;99.90
59881;DHT22;45751;51.380;10.326;2023-08-07T08:02:03;12.70;99.90
59881;DHT22;45751;51.380;10.326;2023-08-07T08:04:30;12.60;99.90
59881;DHT22;45751;51.380;10.326;2023-08-07T08:06:58;12.60;99.90
59881;DHT22;45751;51.380;10.326;2023-08-07T08:09:26;12.60;99.90
59881;DHT22;45751;51.380;10.326;2023-08-07T08:11:53;12.70;99.90
59881;DHT22;45751;51.380;10.326;2023-08-07T08:14:20;12.70;99.90
59881;DHT22;45751;51.380;10.326;2023-08-07T08:16:47;12.70;99.90
59881;DHT22;45751;51.380;10.326;2023-08-07T08:19:14;12.70;99.90
59881;DHT22;45751;51.380;10.326;2023-08-07T08:21:43;12.70;99.90
59881;DHT22;45751;51.380;10.326;2023-08-07T08:24:10;12.80;99.90
59881;DHT22;45751;51.380;10.326;2023-08-07T08:26:37;12.80;99.90
59881;DHT22;45751;51.380;10.326;2023-08-07T08:29:06;12.90;99.90
59881;DHT22;45751;51.380;10.326;2023-08-07T08:31:32;13.00;99.90
59881;DHT22;45751;51.380;10.326;2023-08-07T08:34:00;13.10;99.90
59881;DHT22;45751;51.380;10.326;2023-08-07T08:36:26;13.10;99.90
59881;DHT22;45751;51.380;10.326;2023-08-07T08:38:53;13.10;99.90
59881;DHT22;45751;51.380;10.326;2023-08-07T08:41:21;13.20;99.90
59881;DHT22;45751;51.380;10.326;2023-08-07T08:43:49;13.10;99.90
59881;DHT22;45751;51.380;10.326;2023-08-07T08:46:20;13.20;99.90
59881;DHT22;45751;51.380;10.326;2023-08-07T08:48:51;13.20;99.90
59881;DHT22;45751;51.380;10.326;2023-08-07T08:51:19;13.30;99.90
59881;DHT22;45751;51.380;10.326;2023-08-07T08:53:48;13.30;99.90
59881;DHT22;45751;51.380;10.326;2023-08-07T08:56:16;13.40;99.90
59881;DHT22;45751;51.380;10.326;2023-08-07T08:58:43;13.40;99.90
59881;DHT22;45751;51.380;10.326;2023-08-07T09:01:11;13.40;99.90
59881;DHT22;45751;51.380;10.326;2023-08-07T09:03:39;13.50;99.90
59881;DHT22;45751;51.380;10.326;2023-08-07T09:06:06;13.50;99.90
59881;DHT22;45751;51.380;10.326;2023-08-07T09:08:34;13.60;99.90
59881;DHT22;45751;51.380;10.326;2023-08-07T09:11:02;13.60;99.90
59881;DHT22;45751;51.380;10.326;2023-08-07T09:13:31;13.60;99.90
59881;DHT22;45751;51.380;10.326;2023-08-07T09:16:00;13.50;99.90
59881;DHT22;45751;51.380;10.326;2023-08-07T09:18:28;13.50;99.90
59881;DHT22;45751;51.380;10.326;2023-08-07T09:20:56;13.60;99.90
59881;DHT22;45751;51.380;10.326;2023-08-07T09:23:24;13.50;99.90
59881;DHT22;45751;51.380;10.326;2023-08-07T09:26:02;13.50;99.90
59881;DHT22;45751;51.380;10.326;2023-08-07T09:28:32;13.50;99.90
59881;DHT22;45751;51.380;10.326;2023-08-07T09:30:59;13.50;99.90
59881;DHT22;45751;51.380;10.326;2023-08-07T09:33:29;13.50;99.90
59881;DHT22;45751;51.380;10.326;2023-08-07T09:35:58;13.50;99.90
59881;DHT22;45751;51.380;10.326;2023-08-07T09:38:29;13.50;99.90
59881;DHT22;45751;51.380;10.326;2023-08-07T09:41:01;13.50;99.90
59881;DHT22;45751;51.380;10.326;2023-08-07T09:43:36;13.60;99.90
59881;DHT22;45751;51.380;10.326;2023-08-07T09:46:07;13.60;99.90
59881;DHT22;45751;51.380;10.326;2023-08-07T09:48:41;13.60;99.90
59881;DHT22;45751;51.380;10.326;2023-08-07T09:51:09;13.60;99.90
59881;DHT22;45751;51.380;10.326;2023-08-07T09:53:36;13.60;99.90
59881;DHT22;45751;51.380;10.326;2023-08-07T09:56:03;13.70;99.90
59881;DHT22;45751;51.380;10.326;2023-08-07T09:58:30;13.70;99.90
59881;DHT22;45751;51.380;10.326;2023-08-07T10:01:03;13.90;99.90
59881;DHT22;45751;51.380;10.326;2023-08-07T10:03:31;13.90;99.90
59881;DHT22;45751;51.380;10.326;2023-08-07T10:05:58;14.00;99.90
59881;DHT22;45751;51.380;10.326;2023-08-07T10:08:26;14.00;99.90
59881;DHT22;45751;51.380;10.326;2023-08-07T10:10:54;14.00;99.90
59881;DHT22;45751;51.380;10.326;2023-08-07T10:13:22;14.00;99.90
59881;DHT22;45751;51.380;10.326;2023-08-07T10:16:04;14.00;99.90
59881;DHT22;45751;51.380;10.326;2023-08-07T10:18:32;14.10;99.90
59881;DHT22;45751;51.380;10.326;2023-08-07T10:21:01;14.10;99.90
59881;DHT22;45751;51.380;10.326;2023-08-07T10:23:28;14.20;99.90
59881;DHT22;45751;51.380;10.326;2023-08-07T10:25:56;14.20;99.90
59881;DHT22;45751;51.380;10.326;2023-08-07T10:28:24;14.30;99.90
59881;DHT22;45751;51.380;10.326;2023-08-07T10:30:55;14.30;99.90
59881;DHT22;45751;51.380;10.326;2023-08-07T10:33:23;14.40;99.90
59881;DHT22;45751;51.380;10.326;2023-08-07T10:35:52;14.40;99.90
59881;DHT22;45751;51.380;10.326;2023-08-07T10:38:22;14.40;99.90
59881;DHT22;45751;51.380;10.326;2023-08-07T10:41:02;14.40;99.90
59881;DHT22;45751;51.380;10.326;2023-08-07T10:46:16;14.20;99.90
59881;DHT22;45751;51.380;10.326;2023-08-07T10:48:47;14.20;99.90
59881;DHT22;45751;51.380;10.326;2023-08-07T10:51:16;14.20;99.90
59881;DHT22;45751;51.380;10.326;2023-08-07T10:53:46;14.30;99.90
59881;DHT22;45751;51.380;10.326;2023-08-07T10:56:18;14.30;99.90
59881;DHT22;45751;51.380;10.326;2023-08-07T10:58:55;14.40;99.90
59881;DHT22;45751;51.380;10.326;2023-08-07T11:04:10;14.50;99.90
59881;DHT22;45751;51.380;10.326;2023-08-07T11:06:38;14.50;99.90
59881;DHT22;45751;51.380;10.326;2023-08-07T11:09:06;14.50;99.90
59881;DHT22;45751;51.380;10.326;2023-08-07T11:11:39;14.50;99.90
59881;DHT22;45751;51.380;10.326;2023-08-07T11:14:08;14.40;99.90
59881;DHT22;45751;51.380;10.326;2023-08-07T11:16:36;14.50;99.90
59881;DHT22;45751;51.380;10.326;2023-08-07T11:19:03;14.60;99.90
59881;DHT22;45751;51.380;10.326;2023-08-07T11:21:31;14.70;99.90
59881;DHT22;45751;51.380;10.326;2023-08-07T11:24:01;14.70;99.90
59881;DHT22;45751;51.380;10.326;2023-08-07T11:26:28;14.70;99.90
59881;DHT22;45751;51.380;10.326;2023-08-07T11:28:56;14.80;99.90
59881;DHT22;45751;51.380;10.326;2023-08-07T11:31:24;14.80;99.90
59881;DHT22;45751;51.380;10.326;2023-08-07T11:33:54;15.00;99.90
59881;DHT22;45751;51.380;10.326;2023-08-07T11:36:22;15.00;99.90
59881;DHT22;45751;51.380;10.326;2023-08-07T11:38:49;15.10;99.90
59881;DHT22;45751;51.380;10.326;2023-08-07T11:41:17;15.10;99.90
59881;DHT22;45751;51.380;10.326;2023-08-07T11:43:44;15.20;99.90
59881;DHT22;45751;51.380;10.326;2023-08-07T11:46:13;15.30;99.90
59881;DHT22;45751;51.380;10.326;2023-08-07T11:48:42;15.30;99.90
59881;DHT22;45751;51.380;10.326;2023-08-07T11:51:09;15.30;99.90
59881;DHT22;45751;51.380;10.326;2023-08-07T11:53:38;15.30;99.90
59881;DHT22;45751;51.380;10.326;2023-08-07T11:56:12;15.30;99.90
59881;DHT22;45751;51.380;10.326;2023-08-07T11:58:47;15.30;99.90
59881;DHT22;45751;51.380;10.326;2023-08-07T12:01:18;15.30;99.90
59881;DHT22;45751;51.380;10.326;2023-08-07T12:04:09;15.40;99.90
59881;DHT22;45751;51.380;10.326;2023-08-07T12:06:36;15.50;99.90
59881;DHT22;45751;51.380;10.326;2023-08-07T12:09:06;15.50;99.90
59881;DHT22;45751;51.380;10.326;2023-08-07T12:11:39;15.50;99.90
59881;DHT22;45751;51.380;10.326;2023-08-07T12:14:06;15.40;99.90
59881;DHT22;45751;51.380;10.326;2023-08-07T12:16:34;15.40;99.90
59881;DHT22;45751;51.380;10.326;2023-08-07T12:19:02;15.50;99.90
59881;DHT22;45751;51.380;10.326;2023-08-07T12:21:30;15.50;99.90
59881;DHT22;45751;51.380;10.326;2023-08-07T12:23:59;15.60;99.90
59881;DHT22;45751;51.380;10.326;2023-08-07T12:26:26;15.60;99.90
59881;DHT22;45751;51.380;10.326;2023-08-07T12:28:53;15.80;99.90
59881;DHT22;45751;51.380;10.326;2023-08-07T12:31:21;15.80;99.90
59881;DHT22;45751;51.380;10.326;2023-08-07T12:33:48;15.80;99.90
59881;DHT22;45751;51.380;10.326;2023-08-07T12:36:16;15.80;99.90
59881;DHT22;45751;51.380;10.326;2023-08-07T12:38:46;15.80;99.90
59881;DHT22;45751;51.380;10.326;2023-08-07T12:41:14;15.80;99.90
59881;DHT22;45751;51.380;10.326;2023-08-07T12:43:44;15.90;99.90
59881;DHT22;45751;51.380;10.326;2023-08-07T12:46:10;16.00;99.90
59881;DHT22;45751;51.380;10.326;2023-08-07T12:48:40;16.00;99.90
59881;DHT22;45751;51.380;10.326;2023-08-07T12:51:07;16.10;99.90
59881;DHT22;45751;51.380;10.326;2023-08-07T12:53:34;16.00;99.50
59881;DHT22;45751;51.380;10.326;2023-08-07T12:56:01;15.90;99.90
59881;DHT22;45751;51.380;10.326;2023-08-07T12:58:29;15.80;99.90
59881;DHT22;45751;51.380;10.326;2023-08-07T13:00:56;15.60;99.90
59881;DHT22;45751;51.380;10.326;2023-08-07T13:03:24;15.30;99.90
59881;DHT22;45751;51.380;10.326;2023-08-07T13:05:51;15.10;99.90
59881;DHT22;45751;51.380;10.326;2023-08-07T13:08:18;14.70;99.90
59881;DHT22;45751;51.380;10.326;2023-08-07T13:10:45;14.30;99.90
59881;DHT22;45751;51.380;10.326;2023-08-07T13:13:15;14.10;99.90
59881;DHT22;45751;51.380;10.326;2023-08-07T13:15:42;13.90;99.90
59881;DHT22;45751;51.380;10.326;2023-08-07T13:18:09;13.70;99.90
59881;DHT22;45751;51.380;10.326;2023-08-07T13:20:37;13.60;99.90
59881;DHT22;45751;51.380;10.326;2023-08-07T13:23:04;13.60;99.90
59881;DHT22;45751;51.380;10.326;2023-08-07T13:25:33;13.50;99.90
59881;DHT22;45751;51.380;10.326;2023-08-07T13:28:00;13.50;99.90
59881;DHT22;45751;51.380;10.326;2023-08-07T13:30:27;13.50;99.90
59881;DHT22;45751;51.380;10.326;2023-08-07T13:33:02;13.60;99.90
59881;DHT22;45751;51.380;10.326;2023-08-07T13:35:29;13.60;99.90
59881;DHT22;45751;51.380;10.326;2023-08-07T13:37:56;13.60;99.90
59881;DHT22;45751;51.380;10.326;2023-08-07T13:40:23;13.50;99.90
59881;DHT22;45751;51.380;10.326;2023-08-07T13:42:50;13.40;99.90
59881;DHT22;45751;51.380;10.326;2023-08-07T13:45:17;13.30;99.90
59881;DHT22;45751;51.380;10.326;2023-08-07T13:47:44;13.30;99.90
59881;DHT22;45751;51.380;10.326;2023-08-07T13:50:11;13.20;99.90
59881;DHT22;45751;51.380;10.326;2023-08-07T13:52:39;13.10;99.90
59881;DHT22;45751;51.380;10.326;2023-08-07T13:55:07;13.00;99.90
59881;DHT22;45751;51.380;10.326;2023-08-07T13:57:36;13.00;99.90
59881;DHT22;45751;51.380;10.326;2023-08-07T14:00:03;12.90;99.90
59881;DHT22;45751;51.380;10.326;2023-08-07T14:02:30;12.90;99.90
59881;DHT22;45751;51.380;10.326;2023-08-07T14:04:59;13.00;99.90
59881;DHT22;45751;51.380;10.326;2023-08-07T14:07:26;13.10;99.90
59881;DHT22;45751;51.380;10.326;2023-08-07T14:09:53;13.20;99.90
59881;DHT22;45751;51.380;10.326;2023-08-07T14:12:20;13.40;99.90
59881;DHT22;45751;51.380;10.326;2023-08-07T14:14:47;13.50;99.90
59881;DHT22;45751;51.380;10.326;2023-08-07T14:17:14;13.80;99.90
59881;DHT22;45751;51.380;10.326;2023-08-07T14:19:41;13.90;99.90
59881;DHT22;45751;51.380;10.326;2023-08-07T14:22:08;14.10;99.90
59881;DHT22;45751;51.380;10.326;2023-08-07T14:24:34;14.30;99.90
59881;DHT22;45751;51.380;10.326;2023-08-07T14:27:01;14.40;99.90
59881;DHT22;45751;51.380;10.326;2023-08-07T14:29:28;14.60;99.90
59881;DHT22;45751;51.380;10.326;2023-08-07T14:31:55;14.70;99.90
59881;DHT22;45751;51.380;10.326;2023-08-07T14:34:22;14.90;99.90
59881;DHT22;45751;51.380;10.326;2023-08-07T14:36:49;15.00;99.90
59881;DHT22;45751;51.380;10.326;2023-08-07T14:39:17;15.00;99.90
59881;DHT22;45751;51.380;10.326;2023-08-07T14:41:44;15.00;99.90
59881;DHT22;45751;51.380;10.326;2023-08-07T14:44:11;15.10;99.90
59881;DHT22;45751;51.380;10.326;2023-08-07T14:46:38;15.20;99.90
59881;DHT22;45751;51.380;10.326;2023-08-07T14:49:05;15.30;99.90
59881;DHT22;45751;51.380;10.326;2023-08-07T14:51:32;15.50;99.90
59881;DHT22;45751;51.380;10.326;2023-08-07T14:53:58;15.60;99.90
59881;DHT22;45751;51.380;10.326;2023-08-07T14:56:25;15.70;99.90
59881;DHT22;45751;51.380;10.326;2023-08-07T14:58:52;15.60;99.90
59881;DHT22;45751;51.380;10.326;2023-08-07T15:01:19;15.70;99.90
59881;DHT22;45751;51.380;10.326;2023-08-07T15:03:47;15.60;99.90
59881;DHT22;45751;51.380;10.326;2023-08-07T15:06:14;15.50;99.90
59881;DHT22;45751;51.380;10.326;2023-08-07T15:08:41;15.60;99.90
59881;DHT22;45751;51.380;10.326;2023-08-07T15:11:09;15.80;99.90
59881;DHT22;45751;51.380;10.326;2023-08-07T15:13:36;16.00;99.90
59881;DHT22;45751;51.380;10.326;2023-08-07T15:16:03;16.00;98.00
59881;DHT22;45751;51.380;10.326;2023-08-07T15:18:30;16.00;98.40
59881;DHT22;45751;51.380;10.326;2023-08-07T15:20:58;16.00;98.20
59881;DHT22;45751;51.380;10.326;2023-08-07T15:23:27;16.00;99.40
59881;DHT22;45751;51.380;10.326;2023-08-07T15:25:54;16.20;98.30
59881;DHT22;45751;51.380;10.326;2023-08-07T15:28:23;16.40;95.90
59881;DHT22;45751;51.380;10.326;2023-08-07T15:30:50;16.50;93.90
59881;DHT22;45751;51.380;10.326;2023-08-07T15:33:18;16.70;90.70
59881;DHT22;45751;51.380;10.326;2023-08-07T15:35:48;16.60;87.90